Time;durP1;ratioP1;P1;durP2;ratioP2;P2;SDS_P1;SDS_P2;PMS_P1;PMS_P2;Temp;Humidity;BMP_temperature;BMP_pressure;BME280_temperature;BME280_humidity;BME280_pressure;Samples;Min_cycle;Max_cycle;Signal;HPM_P1;HPM_P2
2022/09/25 00:01:11;;;;;;;0.17;0.17;;;12.00;99.90;;;;;;5035290;28;20104;-72
2022/09/25 00:03:38;;;;;;;0.10;0.10;;;12.00;99.90;;;;;;5035101;28;20025;-72
2022/09/25 00:06:11;;;;;;;0.10;0.10;;;12.00;99.90;;;;;;5035158;28;20049;-72
2022/09/25 00:08:38;;;;;;;0.10;0.10;;;12.00;99.90;;;;;;5035064;28;20025;-72
2022/09/25 00:11:10;;;;;;;0.10;0.10;;;12.00;99.90;;;;;;5035152;28;20026;-72
2022/09/25 00:13:36;;;;;;;0.05;0.05;;;12.00;99.90;;;;;;5034921;28;20037;-72
2022/09/25 00:16:03;;;;;;;0.20;0.20;;;12.10;99.90;;;;;;5035029;28;20116;-72
2022/09/25 00:21:14;;;;;;;0.28;0.28;;;11.90;99.90;;;;;;5032877;28;20485;-72
2022/09/25 00:23:43;;;;;;;0.20;0.20;;;11.80;99.90;;;;;;5017036;28;20043;-72
2022/09/25 00:26:10;;;;;;;0.10;0.10;;;11.70;99.90;;;;;;5034715;28;20063;-72
2022/09/25 00:28:37;;;;;;;1.42;1.33;;;11.70;99.90;;;;;;5034664;28;20018;-72
2022/09/25 00:31:04;;;;;;;0.03;0.03;;;11.70;99.90;;;;;;5034813;28;20064;-72
2022/09/25 00:33:31;;;;;;;0.15;0.15;;;11.60;99.90;;;;;;5033361;28;20025;-72
2022/09/25 00:36:06;;;;;;;0.10;0.10;;;11.60;99.90;;;;;;5034791;28;20389;-72
2022/09/25 00:38:34;;;;;;;0.10;0.10;;;11.60;99.90;;;;;;5034588;28;20021;-72
2022/09/25 00:41:00;;;;;;;0.10;0.10;;;11.70;99.90;;;;;;5034631;28;20052;-72
2022/09/25 00:43:55;;;;;;;0.10;0.10;;;11.70;99.90;;;;;;5034441;28;20026;-72
2022/09/25 00:46:30;;;;;;;0.20;0.20;;;11.50;99.90;;;;;;5033041;28;20507;-72
2022/09/25 00:49:09;;;;;;;0.13;0.13;;;11.40;99.90;;;;;;5034464;28;20037;-72
2022/09/25 00:51:41;;;;;;;0.10;0.10;;;11.40;99.90;;;;;;5016754;28;20025;-73
2022/09/25 00:54:14;;;;;;;0.10;0.10;;;11.40;99.90;;;;;;5109383;22;20037;-74
2022/09/25 00:56:43;;;;;;;0.10;0.10;;;11.60;99.90;;;;;;5052900;28;20028;-73
2022/09/25 00:59:13;;;;;;;0.10;0.10;;;11.70;99.90;;;;;;5054056;28;20114;-73
2022/09/25 01:01:39;;;;;;;0.57;0.57;;;11.80;99.90;;;;;;5052614;28;20029;-74
2022/09/25 01:04:06;;;;;;;0.10;0.10;;;11.90;99.90;;;;;;5052411;28;20025;-74
2022/09/25 01:06:32;;;;;;;0.10;0.10;;;12.00;99.90;;;;;;5052349;28;20029;-74
2022/09/25 01:08:59;;;;;;;0.10;0.10;;;12.00;99.90;;;;;;5053729;28;20427;-74
2022/09/25 01:11:25;;;;;;;0.10;0.10;;;11.80;99.90;;;;;;5052241;28;20555;-74
2022/09/25 01:13:54;;;;;;;0.03;0.03;;;11.90;99.90;;;;;;5052247;28;20112;-73
2022/09/25 01:16:38;;;;;;;0.10;0.10;;;12.00;99.90;;;;;;5053383;28;20490;-74
2022/09/25 01:19:35;;;;;;;0.10;0.10;;;12.00;99.90;;;;;;5052454;28;20037;-74
2022/09/25 01:22:27;;;;;;;0.10;0.10;;;12.00;99.90;;;;;;5053546;28;20094;-73
2022/09/25 01:24:55;;;;;;;0.10;0.10;;;11.90;99.90;;;;;;5053304;28;20025;-73
2022/09/25 01:27:49;;;;;;;0.10;0.10;;;11.90;99.90;;;;;;5052163;28;20028;-74
2022/09/25 01:30:19;;;;;;;0.20;0.20;;;11.90;99.90;;;;;;5053370;28;20032;-74
2022/09/25 01:32:51;;;;;;;6.93;4.05;;;11.80;99.90;;;;;;5052179;28;20017;-74
2022/09/25 01:35:46;;;;;;;0.10;0.10;;;11.70;99.90;;;;;;5051814;28;20025;-74
2022/09/25 01:38:35;;;;;;;0.20;0.20;;;11.50;99.90;;;;;;5051850;28;20021;-74
2022/09/25 01:41:25;;;;;;;0.17;0.17;;;11.20;99.90;;;;;;5053057;28;20468;-74
2022/09/25 01:44:06;;;;;;;0.80;0.40;;;11.10;99.90;;;;;;5051639;28;20044;-73
2022/09/25 01:46:38;;;;;;;0.10;0.10;;;11.00;99.90;;;;;;5051709;28;20091;-74
2022/09/25 01:49:16;;;;;;;0.30;0.30;;;11.00;99.90;;;;;;5035029;28;20021;-74
2022/09/25 01:51:47;;;;;;;0.10;0.10;;;11.00;99.90;;;;;;5051575;28;20127;-74
2022/09/25 01:54:38;;;;;;;0.10;0.10;;;11.00;99.90;;;;;;5052611;28;20025;-74
2022/09/25 01:57:31;;;;;;;0.15;0.15;;;11.10;99.90;;;;;;5052809;28;20108;-73
2022/09/25 02:00:03;;;;;;;0.25;0.25;;;11.10;99.90;;;;;;5052709;28;20021;-73
2022/09/25 02:02:35;;;;;;;0.10;0.10;;;11.20;99.90;;;;;;5051212;28;20036;-74
2022/09/25 02:05:12;;;;;;;0.10;0.10;;;11.20;99.90;;;;;;5052345;28;20054;-74
2022/09/25 02:07:43;;;;;;;0.10;0.10;;;11.30;99.90;;;;;;5051368;28;20028;-73
2022/09/25 02:10:14;;;;;;;0.10;0.10;;;11.40;99.90;;;;;;5052504;28;20021;-74
2022/09/25 02:12:45;;;;;;;0.10;0.10;;;11.50;99.90;;;;;;5052408;28;20029;-73
2022/09/25 02:15:22;;;;;;;0.10;0.10;;;11.50;99.90;;;;;;5052428;28;20017;-74
2022/09/25 02:21:11;;;;;;;0.20;0.20;;;11.60;99.90;;;;;;5052710;28;20025;-74
2022/09/25 02:23:48;;;;;;;0.13;0.13;;;11.70;99.90;;;;;;5051053;28;20036;-74
2022/09/25 02:26:25;;;;;;;0.10;0.10;;;11.60;99.90;;;;;;5050866;28;20120;-73
2022/09/25 02:28:52;;;;;;;0.10;0.10;;;11.70;99.90;;;;;;5051012;28;20104;-74
2022/09/25 02:31:20;;;;;;;0.10;0.10;;;11.70;99.90;;;;;;5050969;28;20121;-73
2022/09/25 02:33:46;;;;;;;0.10;0.10;;;11.80;99.90;;;;;;5052036;28;20143;-74
2022/09/25 02:36:18;;;;;;;4.45;2.92;;;11.80;99.90;;;;;;5051984;28;20574;-74
2022/09/25 02:38:44;;;;;;;0.10;0.10;;;11.70;99.90;;;;;;5052112;28;20029;-74
2022/09/25 02:41:15;;;;;;;0.15;0.15;;;11.70;99.90;;;;;;5052019;28;20555;-74
2022/09/25 02:43:59;;;;;;;0.10;0.10;;;11.70;99.90;;;;;;5051657;28;20036;-74
2022/09/25 02:46:53;;;;;;;0.10;0.10;;;11.60;99.90;;;;;;5050574;28;20120;-74
2022/09/25 02:49:42;;;;;;;0.10;0.10;;;11.40;99.90;;;;;;5010355;28;20041;-74
2022/09/25 02:52:32;;;;;;;0.32;0.32;;;11.40;99.90;;;;;;5050819;28;20021;-74
2022/09/25 02:55:10;;;;;;;0.10;0.10;;;11.30;99.90;;;;;;5051553;28;20106;-73
2022/09/25 02:57:48;;;;;;;0.10;0.10;;;11.40;99.90;;;;;;5050975;28;20036;-74
2022/09/25 03:00:14;;;;;;;0.10;0.10;;;11.50;99.90;;;;;;5050624;28;20078;-74
2022/09/25 03:02:42;;;;;;;0.10;0.10;;;11.50;99.90;;;;;;5050563;28;20532;-74
2022/09/25 03:05:11;;;;;;;0.10;0.10;;;11.60;99.90;;;;;;5051621;28;20284;-74
2022/09/25 03:10:22;;;;;;;0.10;0.10;;;11.80;99.90;;;;;;5051836;28;20017;-74
2022/09/25 03:12:48;;;;;;;0.10;0.10;;;11.70;99.90;;;;;;5051566;28;20029;-74
2022/09/25 03:15:14;;;;;;;0.10;0.10;;;11.60;99.90;;;;;;5050285;28;20284;-74
2022/09/25 03:17:40;;;;;;;0.10;0.10;;;11.60;99.90;;;;;;5033715;28;20029;-74
2022/09/25 03:20:08;;;;;;;0.13;0.13;;;11.70;99.90;;;;;;5051535;28;20090;-74
2022/09/25 03:22:35;;;;;;;0.10;0.10;;;11.80;99.90;;;;;;5050227;28;20029;-73
2022/09/25 03:25:01;;;;;;;0.28;0.28;;;11.80;99.90;;;;;;5050089;28;20021;-74
2022/09/25 03:27:28;;;;;;;0.10;0.10;;;11.80;99.90;;;;;;5033748;28;20412;-74
2022/09/25 03:29:54;;;;;;;0.10;0.10;;;11.70;99.90;;;;;;5051522;28;20023;-74
2022/09/25 03:32:20;;;;;;;0.10;0.10;;;11.80;99.90;;;;;;5051616;28;20041;-74
2022/09/25 03:34:46;;;;;;;0.20;0.20;;;12.00;99.90;;;;;;5050072;28;20108;-73
2022/09/25 03:37:12;;;;;;;0.10;0.10;;;12.00;99.90;;;;;;5051394;28;20516;-74
2022/09/25 03:39:38;;;;;;;0.30;0.17;;;11.90;99.90;;;;;;5050105;28;20100;-74
2022/09/25 03:42:04;;;;;;;0.10;0.10;;;11.80;99.90;;;;;;5050216;28;20176;-74
2022/09/25 03:44:30;;;;;;;0.10;0.10;;;11.80;99.90;;;;;;5050032;28;20450;-74
2022/09/25 03:46:56;;;;;;;0.10;0.10;;;11.70;99.90;;;;;;5051676;28;20103;-74
2022/09/25 03:49:22;;;;;;;0.10;0.10;;;11.90;99.90;;;;;;5050047;28;20032;-74
2022/09/25 03:51:48;;;;;;;0.30;0.20;;;11.90;99.90;;;;;;5051320;28;20429;-74
2022/09/25 03:54:13;;;;;;;0.10;0.10;;;11.90;99.90;;;;;;5049886;28;20039;-73
2022/09/25 03:56:40;;;;;;;0.10;0.10;;;11.90;99.90;;;;;;5052581;28;20039;-74
2022/09/25 03:59:05;;;;;;;0.10;0.10;;;11.80;99.90;;;;;;5053852;28;20028;-74
2022/09/25 04:01:31;;;;;;;0.10;0.10;;;11.90;99.90;;;;;;5053659;28;20496;-74
2022/09/25 04:03:59;;;;;;;0.10;0.10;;;11.90;99.90;;;;;;5054884;28;20025;-74
2022/09/25 04:06:25;;;;;;;0.10;0.10;;;11.90;99.90;;;;;;5053437;28;20025;-74
2022/09/25 04:08:52;;;;;;;0.10;0.10;;;11.90;99.90;;;;;;5053773;28;20032;-74
2022/09/25 04:11:20;;;;;;;0.10;0.10;;;11.90;99.90;;;;;;5036803;28;20036;-73
2022/09/25 04:13:46;;;;;;;0.10;0.10;;;11.90;99.90;;;;;;5053344;28;20029;-73
2022/09/25 04:16:14;;;;;;;0.20;0.20;;;11.90;99.90;;;;;;5053362;28;20029;-73
2022/09/25 04:18:41;;;;;;;0.10;0.10;;;11.80;99.90;;;;;;5054655;28;20028;-73
2022/09/25 04:21:10;;;;;;;0.10;0.10;;;11.80;99.90;;;;;;5053342;28;20029;-74
2022/09/25 04:23:36;;;;;;;0.10;0.10;;;11.80;99.90;;;;;;5053179;28;20104;-74
2022/09/25 04:26:03;;;;;;;0.10;0.10;;;11.70;99.90;;;;;;5054380;28;20100;-73
2022/09/25 04:28:31;;;;;;;0.30;0.30;;;11.70;99.90;;;;;;5053146;28;20453;-74
2022/09/25 04:30:56;;;;;;;1.88;1.45;;;11.70;99.90;;;;;;5053271;28;20500;-73
2022/09/25 04:36:07;;;;;;;0.10;0.10;;;11.70;99.90;;;;;;5054191;28;20542;-74
2022/09/25 04:38:33;;;;;;;0.10;0.10;;;11.80;99.90;;;;;;5054299;28;20032;-74
2022/09/25 04:41:00;;;;;;;0.10;0.10;;;11.80;99.90;;;;;;5054121;28;20025;-74
2022/09/25 04:43:29;;;;;;;0.20;0.20;;;11.80;99.90;;;;;;5054153;28;20013;-74
2022/09/25 04:46:01;;;;;;;0.10;0.10;;;11.80;99.90;;;;;;5052706;28;20365;-74
2022/09/25 04:48:27;;;;;;;0.10;0.10;;;11.80;99.90;;;;;;5054205;28;20079;-74
2022/09/25 04:50:53;;;;;;;0.10;0.10;;;11.80;99.90;;;;;;5052808;28;20305;-73
2022/09/25 04:53:18;;;;;;;0.10;0.10;;;11.90;99.90;;;;;;5053899;28;20033;-74
2022/09/25 04:55:46;;;;;;;0.10;0.10;;;11.90;99.90;;;;;;5053759;28;20041;-74
2022/09/25 04:58:11;;;;;;;0.10;0.10;;;11.80;99.90;;;;;;5052868;28;20549;-74
2022/09/25 05:00:39;;;;;;;0.10;0.10;;;11.90;99.90;;;;;;5053794;28;20112;-73
2022/09/25 05:03:05;;;;;;;0.10;0.10;;;12.10;99.90;;;;;;5053708;28;20070;-74
2022/09/25 05:05:31;;;;;;;0.00;0.00;;;12.20;99.90;;;;;;5053649;28;20029;-74
2022/09/25 05:07:59;;;;;;;0.10;0.10;;;12.30;99.90;;;;;;5053406;28;20013;-74
2022/09/25 05:10:27;;;;;;;0.10;0.10;;;12.30;99.90;;;;;;5052398;28;20523;-74
2022/09/25 05:12:57;;;;;;;0.10;0.10;;;12.10;99.90;;;;;;5053602;28;20108;-74
2022/09/25 05:15:25;;;;;;;0.03;0.03;;;12.10;99.90;;;;;;5035539;28;20116;-73
2022/09/25 05:17:58;;;;;;;0.10;0.10;;;12.20;99.90;;;;;;5053618;28;20021;-74
2022/09/25 05:20:24;;;;;;;0.10;0.10;;;12.10;99.90;;;;;;5052274;28;20047;-74
2022/09/25 05:22:54;;;;;;;0.10;0.10;;;12.10;99.90;;;;;;5052253;28;20021;-73
2022/09/25 05:25:22;;;;;;;0.15;0.15;;;11.90;99.90;;;;;;5053245;28;20071;-74
2022/09/25 05:27:49;;;;;;;0.20;0.20;;;11.90;99.90;;;;;;5052084;28;20025;-73
2022/09/25 05:30:15;;;;;;;0.10;0.10;;;11.90;99.90;;;;;;5053328;28;20493;-74
2022/09/25 05:32:48;;;;;;;0.10;0.10;;;12.10;99.90;;;;;;5053122;28;20025;-74
2022/09/25 05:35:15;;;;;;;0.20;0.20;;;12.20;99.90;;;;;;5035079;28;20112;-73
2022/09/25 05:37:41;;;;;;;0.10;0.10;;;12.20;99.90;;;;;;5053238;28;20062;-74
2022/09/25 05:40:08;;;;;;;0.10;0.10;;;12.30;99.90;;;;;;5043361;28;20029;-74
2022/09/25 05:42:33;;;;;;;0.10;0.10;;;12.40;99.90;;;;;;5037590;28;20017;-74
2022/09/25 05:44:59;;;;;;;0.05;0.05;;;12.40;99.90;;;;;;5052726;28;20032;-74
2022/09/25 05:47:25;;;;;;;0.03;0.03;;;12.40;99.90;;;;;;5051667;28;20515;-74
2022/09/25 05:49:50;;;;;;;0.10;0.10;;;12.40;99.90;;;;;;5032372;28;20033;-74
2022/09/25 05:52:16;;;;;;;0.10;0.10;;;12.50;99.90;;;;;;5031812;28;20389;-74
2022/09/25 05:54:42;;;;;;;0.10;0.10;;;12.40;99.90;;;;;;5032578;28;20035;-73
2022/09/25 05:57:08;;;;;;;0.10;0.10;;;12.40;99.90;;;;;;5032667;28;20075;-74
2022/09/25 05:59:34;;;;;;;0.10;0.10;;;12.20;99.90;;;;;;5032781;28;20102;-74
2022/09/25 06:01:59;;;;;;;0.10;0.10;;;12.30;99.90;;;;;;5031522;28;20025;-74
2022/09/25 06:04:26;;;;;;;0.10;0.10;;;12.40;99.90;;;;;;5032627;28;20148;-74
2022/09/25 06:06:51;;;;;;;0.10;0.10;;;12.60;99.90;;;;;;5031352;28;20028;-74
2022/09/25 06:09:17;;;;;;;0.10;0.10;;;12.70;99.90;;;;;;5031396;28;20104;-74
2022/09/25 06:11:46;;;;;;;0.82;0.80;;;12.60;99.90;;;;;;5032532;28;20049;-74
2022/09/25 06:14:13;;;;;;;0.10;0.10;;;12.60;99.90;;;;;;5050201;28;20500;-74
2022/09/25 06:16:39;;;;;;;0.00;0.00;;;12.60;99.90;;;;;;5052165;28;20051;-73
2022/09/25 06:19:05;;;;;;;0.10;0.10;;;12.60;99.90;;;;;;5051639;28;20028;-73
2022/09/25 06:21:30;;;;;;;0.22;0.22;;;12.60;99.90;;;;;;5052227;28;20025;-73
2022/09/25 06:23:56;;;;;;;0.10;0.10;;;12.60;99.90;;;;;;5034310;28;20029;-74
2022/09/25 06:26:24;;;;;;;0.00;0.00;;;12.60;99.90;;;;;;5050889;28;20082;-74
2022/09/25 06:28:49;;;;;;;0.10;0.10;;;12.70;99.90;;;;;;5050743;28;20029;-74
2022/09/25 06:31:15;;;;;;;0.10;0.10;;;12.80;99.90;;;;;;5042903;28;20108;-73
2022/09/25 06:33:42;;;;;;;0.10;0.10;;;12.80;99.90;;;;;;5032132;28;20030;-73
2022/09/25 06:36:08;;;;;;;0.00;0.00;;;12.80;99.90;;;;;;5032115;28;20013;-74
2022/09/25 06:38:34;;;;;;;0.50;0.50;;;12.80;99.90;;;;;;5030925;28;20040;-74
2022/09/25 06:41:00;;;;;;;0.10;0.10;;;12.90;99.90;;;;;;5030786;28;20036;-74
2022/09/25 06:43:26;;;;;;;0.10;0.10;;;13.00;99.90;;;;;;5032027;28;20045;-74
2022/09/25 06:45:52;;;;;;;0.10;0.10;;;12.90;99.90;;;;;;5030698;28;20029;-74
2022/09/25 06:48:20;;;;;;;0.10;0.10;;;12.70;99.90;;;;;;5049521;28;20033;-74
2022/09/25 06:50:51;;;;;;;0.10;0.10;;;12.80;99.90;;;;;;5041955;28;20032;-74
2022/09/25 06:53:19;;;;;;;0.03;0.03;;;12.70;99.90;;;;;;5049265;28;20029;-74
2022/09/25 06:55:46;;;;;;;0.00;0.00;;;12.80;99.90;;;;;;5042452;28;20094;-74
2022/09/25 06:58:14;;;;;;;0.10;0.10;;;12.90;99.90;;;;;;5046630;28;20021;-73
2022/09/25 07:00:40;;;;;;;0.10;0.10;;;13.10;99.90;;;;;;5013907;28;20459;-73
2022/09/25 07:05:50;;;;;;;0.00;0.00;;;13.20;99.90;;;;;;5031733;28;20024;-72
2022/09/25 07:08:19;;;;;;;0.00;0.00;;;13.10;99.90;;;;;;5048406;28;20107;-72
2022/09/25 07:10:56;;;;;;;1.08;0.52;;;13.10;99.90;;;;;;5051668;28;20051;-72
2022/09/25 07:13:25;;;;;;;0.10;0.10;;;13.30;99.90;;;;;;5050304;28;20435;-72
2022/09/25 07:16:05;;;;;;;0.10;0.10;;;13.30;99.90;;;;;;5048847;28;20499;-72
2022/09/25 07:18:31;;;;;;;0.10;0.10;;;13.40;99.90;;;;;;5027094;28;20051;-73
2022/09/25 07:21:05;;;;;;;1.55;1.45;;;13.40;99.90;;;;;;5044814;28;20031;-72
2022/09/25 07:23:32;;;;;;;0.10;0.10;;;13.50;99.90;;;;;;5048307;28;20049;-72
2022/09/25 07:26:05;;;;;;;0.03;0.03;;;13.50;99.90;;;;;;5048304;28;20017;-72
2022/09/25 07:28:31;;;;;;;0.20;0.20;;;13.60;99.90;;;;;;5046971;28;20473;-72
2022/09/25 07:30:57;;;;;;;0.10;0.10;;;13.70;99.90;;;;;;5047892;28;20027;-73
2022/09/25 07:33:23;;;;;;;0.10;0.10;;;13.70;99.90;;;;;;5050633;28;20150;-72
2022/09/25 07:35:51;;;;;;;0.10;0.10;;;13.80;99.90;;;;;;5038334;28;20038;-72
2022/09/25 07:38:18;;;;;;;0.10;0.10;;;13.90;99.90;;;;;;5046002;28;20028;-72
2022/09/25 07:40:43;;;;;;;0.90;0.32;;;14.00;99.90;;;;;;5034115;28;20032;-73
2022/09/25 07:43:09;;;;;;;0.00;0.00;;;14.00;99.90;;;;;;5035658;28;20377;-73
2022/09/25 07:45:35;;;;;;;0.10;0.10;;;14.00;99.90;;;;;;5048269;28;20029;-72
2022/09/25 07:48:02;;;;;;;0.10;0.10;;;14.20;99.90;;;;;;5037044;28;20072;-72
2022/09/25 07:50:30;;;;;;;0.20;0.20;;;14.30;99.90;;;;;;5034960;28;20469;-73
2022/09/25 07:52:56;;;;;;;0.10;0.10;;;14.30;99.90;;;;;;5033932;28;20389;-73
2022/09/25 07:55:22;;;;;;;0.10;0.10;;;14.40;99.90;;;;;;5033488;28;20465;-73
2022/09/25 07:57:49;;;;;;;0.65;0.65;;;14.30;99.90;;;;;;5035433;28;20493;-72
2022/09/25 08:00:16;;;;;;;0.10;0.10;;;14.30;99.90;;;;;;5054770;28;20021;-75
2022/09/25 08:02:42;;;;;;;0.25;0.25;;;14.10;99.90;;;;;;5044420;28;20021;-73
2022/09/25 08:05:08;;;;;;;0.10;0.10;;;14.00;99.90;;;;;;5034924;28;20021;-73
2022/09/25 08:07:34;;;;;;;1.45;1.35;;;13.90;99.90;;;;;;5034924;28;20100;-73
2022/09/25 08:10:00;;;;;;;0.00;0.00;;;13.90;99.90;;;;;;5034760;28;20109;-73
2022/09/25 08:12:25;;;;;;;0.10;0.10;;;14.00;99.90;;;;;;5039223;28;20025;-74
2022/09/25 08:14:51;;;;;;;0.10;0.10;;;14.10;99.90;;;;;;5043974;28;20477;-73
2022/09/25 08:17:18;;;;;;;0.10;0.10;;;14.30;99.90;;;;;;5053233;28;20449;-73
2022/09/25 08:19:44;;;;;;;0.10;0.10;;;14.50;99.90;;;;;;5053296;28;20059;-73
2022/09/25 08:22:11;;;;;;;0.10;0.10;;;14.90;99.90;;;;;;5054066;28;20472;-73
2022/09/25 08:24:36;;;;;;;0.22;0.22;;;14.90;99.90;;;;;;5051681;28;20407;-74
2022/09/25 08:27:03;;;;;;;0.20;0.20;;;15.00;99.90;;;;;;5053024;28;20036;-73
2022/09/25 08:29:29;;;;;;;0.10;0.10;;;15.10;99.90;;;;;;5036472;28;20029;-74
2022/09/25 08:31:56;;;;;;;0.10;0.10;;;15.20;99.90;;;;;;5054190;28;20029;-71
2022/09/25 08:34:22;;;;;;;0.10;0.10;;;15.20;99.90;;;;;;5052883;28;20488;-73
2022/09/25 08:36:49;;;;;;;0.10;0.10;;;15.10;99.90;;;;;;5054337;28;20033;-73
2022/09/25 08:39:15;;;;;;;0.10;0.10;;;15.10;99.90;;;;;;5054229;28;20083;-74
2022/09/25 08:41:51;;;;;;;0.10;0.10;;;15.10;99.90;;;;;;5052172;28;20158;-74
2022/09/25 08:44:38;;;;;;;0.10;0.10;;;15.10;99.90;;;;;;5054053;28;20021;-74
2022/09/25 08:50:05;;;;;;;0.10;0.10;;;15.40;99.90;;;;;;5042920;28;20083;-72
2022/09/25 08:52:32;;;;;;;2.17;1.33;;;15.50;99.90;;;;;;5047314;28;20112;-74
2022/09/25 08:54:58;;;;;;;1.88;1.13;;;15.50;99.90;;;;;;5033387;28;20068;-73
2022/09/25 08:57:30;;;;;;;0.10;0.10;;;15.60;99.90;;;;;;5044397;28;20124;-73
2022/09/25 09:00:01;;;;;;;;;;;15.60;99.90;;;;;;5052905;28;20108;-74
2022/09/25 09:02:41;;;;;;;0.15;0.15;;;15.70;99.90;;;;;;5052591;28;19904;-74
2022/09/25 09:05:24;;;;;;;0.10;0.10;;;15.90;99.90;;;;;;5047787;28;20029;-74
2022/09/25 09:07:58;;;;;;;0.10;0.10;;;16.00;99.90;;;;;;5033782;28;20025;-73
2022/09/25 09:10:34;;;;;;;0.10;0.10;;;16.10;99.90;;;;;;5034097;28;20028;-74
2022/09/25 09:13:22;;;;;;;0.40;0.40;;;16.10;99.90;;;;;;5032053;28;20021;-74
2022/09/25 09:15:57;;;;;;;0.52;0.52;;;16.00;99.90;;;;;;5033471;28;20381;-74
2022/09/25 09:18:35;;;;;;;0.10;0.10;;;15.80;99.90;;;;;;5032388;28;20025;-74
2022/09/25 09:21:21;;;;;;;0.10;0.10;;;15.80;99.90;;;;;;5033484;28;20550;-74
2022/09/25 09:24:02;;;;;;;0.10;0.10;;;15.80;99.90;;;;;;5048935;28;20075;-74
2022/09/25 09:26:48;;;;;;;0.10;0.10;;;16.00;99.90;;;;;;5052096;28;20078;-74
2022/09/25 09:29:35;;;;;;;0.10;0.10;;;16.00;99.90;;;;;;5052167;28;20035;-74
2022/09/25 09:32:10;;;;;;;0.13;0.13;;;16.10;99.90;;;;;;5053230;28;20079;-74
2022/09/25 09:35:00;;;;;;;0.13;0.13;;;16.10;99.90;;;;;;5053126;28;20029;-74
2022/09/25 09:37:51;;;;;;;0.10;0.10;;;16.20;99.90;;;;;;5053137;28;20021;-75
2022/09/25 09:40:33;;;;;;;0.10;0.10;;;16.30;99.90;;;;;;5052934;28;20395;-74
2022/09/25 09:43:36;;;;;;;0.10;0.10;;;16.40;99.90;;;;;;5052939;28;20025;-73
2022/09/25 09:46:33;;;;;;;0.68;0.68;;;16.30;99.90;;;;;;5020876;28;20116;-74
2022/09/25 09:49:03;;;;;;;0.50;0.50;;;16.40;99.90;;;;;;5053243;28;20021;-74
2022/09/25 09:51:42;;;;;;;0.10;0.10;;;16.40;99.90;;;;;;5051463;28;20037;-74
2022/09/25 09:54:23;;;;;;;0.00;0.00;;;16.20;99.90;;;;;;5050471;28;20147;-74
2022/09/25 09:56:51;;;;;;;0.40;0.40;;;16.40;99.90;;;;;;5043269;28;20029;-74
2022/09/25 09:59:53;;;;;;;0.10;0.10;;;16.40;99.90;;;;;;5032665;28;20032;-73
2022/09/25 10:02:45;;;;;;;0.10;0.10;;;16.30;99.90;;;;;;5038320;28;20037;-74
2022/09/25 10:05:22;;;;;;;0.00;0.00;;;16.30;99.90;;;;;;5040828;28;20286;-74
2022/09/25 10:07:50;;;;;;;0.40;0.40;;;16.40;99.90;;;;;;5052390;28;20025;-74
2022/09/25 10:10:17;;;;;;;0.20;0.20;;;16.40;99.90;;;;;;5035745;28;20053;-74
2022/09/25 10:12:50;;;;;;;0.40;0.35;;;16.20;99.90;;;;;;5014431;28;20033;-74
2022/09/25 10:15:49;;;;;;;0.10;0.10;;;16.20;99.90;;;;;;5034643;28;20028;-74
2022/09/25 10:18:16;;;;;;;0.30;0.30;;;16.30;99.90;;;;;;5039019;28;20044;-74
2022/09/25 10:20:55;;;;;;;0.10;0.10;;;16.30;99.90;;;;;;5030904;28;20033;-73
2022/09/25 10:23:46;;;;;;;0.20;0.20;;;16.30;99.90;;;;;;5031052;28;20049;-74
2022/09/25 10:26:24;;;;;;;0.10;0.10;;;16.30;99.90;;;;;;5051180;28;20073;-73
2022/09/25 10:28:50;;;;;;;0.10;0.10;;;16.30;99.90;;;;;;5052053;28;20017;-74
2022/09/25 10:31:18;;;;;;;0.10;0.10;;;16.30;99.90;;;;;;5052041;28;20032;-74
2022/09/25 10:34:00;;;;;;;0.10;0.10;;;16.20;99.90;;;;;;5051835;28;20029;-74
2022/09/25 10:36:46;;;;;;;0.10;0.10;;;16.20;99.90;;;;;;5014210;28;20031;-74
2022/09/25 10:39:39;;;;;;;0.10;0.10;;;16.00;99.90;;;;;;5031920;28;20465;-74
2022/09/25 10:42:07;;;;;;;;;;;16.00;99.90;;;;;;5042065;28;20520;-74
2022/09/25 10:44:36;;;;;;;0.10;0.10;;;16.00;99.90;;;;;;5051779;28;19908;-74
2022/09/25 10:50:19;;;;;;;0.10;0.10;;;15.90;99.90;;;;;;5052062;28;20025;-74
2022/09/25 10:52:57;;;;;;;0.20;0.20;;;15.80;99.90;;;;;;5050470;28;20082;-74
2022/09/25 10:55:27;;;;;;;0.20;0.20;;;16.00;99.90;;;;;;5050060;28;20043;-74
2022/09/25 10:58:18;;;;;;;0.32;0.20;;;15.90;99.90;;;;;;5035168;28;20032;-73
2022/09/25 11:00:50;;;;;;;0.30;0.30;;;15.90;99.90;;;;;;5050331;28;20039;-74
2022/09/25 11:03:39;;;;;;;0.10;0.10;;;15.80;99.90;;;;;;5051688;28;20036;-73
2022/09/25 11:06:25;;;;;;;0.10;0.10;;;15.90;99.90;;;;;;5057785;28;20052;-74
2022/09/25 11:09:11;;;;;;;0.30;0.30;;;15.90;99.90;;;;;;5052312;28;20376;-74
2022/09/25 11:11:38;;;;;;;0.10;0.10;;;15.90;99.90;;;;;;5036846;28;20033;-74
2022/09/25 11:14:07;;;;;;;0.10;0.10;;;16.00;99.90;;;;;;5037997;28;20048;-74
2022/09/25 11:16:56;;;;;;;2.97;0.70;;;16.00;99.90;;;;;;5038042;28;20091;-74
2022/09/25 11:19:28;;;;;;;0.10;0.10;;;15.90;99.90;;;;;;5038170;28;20104;-74
2022/09/25 11:21:58;;;;;;;;;;;15.90;99.90;;;;;;5038471;28;20105;-74
2022/09/25 11:24:39;;;;;;;0.10;0.10;;;16.00;99.90;;;;;;5038011;28;20324;-74
2022/09/25 11:27:31;;;;;;;0.10;0.10;;;16.10;99.90;;;;;;5036638;28;20041;-74
2022/09/25 11:30:15;;;;;;;0.80;0.80;;;16.10;99.90;;;;;;5044642;28;20457;-74
2022/09/25 11:32:57;;;;;;;0.30;0.30;;;16.00;99.90;;;;;;5030607;28;20112;-74
2022/09/25 11:35:45;;;;;;;0.70;0.70;;;16.10;99.90;;;;;;5057653;28;20413;-74
2022/09/25 11:38:16;;;;;;;0.10;0.10;;;16.00;99.90;;;;;;5056583;28;20029;-74
2022/09/25 11:41:11;;;;;;;2.63;1.73;;;16.50;99.90;;;;;;5039852;28;20025;-74
2022/09/25 11:43:43;;;;;;;0.63;0.63;;;16.70;99.90;;;;;;5057669;28;20021;-74
2022/09/25 11:46:38;;;;;;;0.13;0.13;;;16.70;99.90;;;;;;5056404;28;20074;-75
2022/09/25 11:49:22;;;;;;;0.47;0.47;;;16.60;99.90;;;;;;5056477;28;20108;-74
2022/09/25 11:52:07;;;;;;;0.25;0.25;;;16.40;99.90;;;;;;5056488;28;20032;-74
2022/09/25 11:55:27;;;;;;;0.10;0.10;;;16.20;99.90;;;;;;5055517;28;20068;-74
2022/09/25 11:58:13;;;;;;;0.10;0.10;;;16.30;99.90;;;;;;4978677;28;20022;-74
2022/09/25 12:00:53;;;;;;;0.20;0.20;;;16.20;99.90;;;;;;5051285;28;20037;-74
2022/09/25 12:03:47;;;;;;;0.65;0.47;;;16.10;99.90;;;;;;5054046;28;20022;-74
2022/09/25 12:06:25;;;;;;;0.13;0.13;;;16.10;99.90;;;;;;5044496;28;20535;-74
2022/09/25 12:09:03;;;;;;;0.20;0.20;;;16.20;99.90;;;;;;5036478;28;20021;-74
2022/09/25 12:11:44;;;;;;;0.20;0.20;;;16.10;99.90;;;;;;5036465;28;20366;-74
2022/09/25 12:14:18;;;;;;;0.05;0.05;;;16.10;99.90;;;;;;5020152;28;20022;-74
2022/09/25 12:16:57;;;;;;;0.20;0.20;;;16.20;99.90;;;;;;5017333;28;20491;-74
2022/09/25 12:19:37;;;;;;;0.10;0.10;;;16.50;99.90;;;;;;5033289;28;20120;-73
2022/09/25 12:22:43;;;;;;;0.10;0.10;;;16.60;99.90;;;;;;5033529;28;20489;-73
2022/09/25 12:25:26;;;;;;;0.00;0.00;;;16.60;99.90;;;;;;5035675;28;20018;-73
2022/09/25 12:28:01;;;;;;;0.10;0.10;;;16.60;99.90;;;;;;5033330;28;20552;-72
2022/09/25 12:30:39;;;;;;;0.47;0.45;;;16.50;99.90;;;;;;5034755;28;20392;-73
2022/09/25 12:33:16;;;;;;;0.10;0.10;;;16.40;99.90;;;;;;5025994;28;20428;-72
2022/09/25 12:36:09;;;;;;;0.10;0.10;;;16.50;99.90;;;;;;5052595;28;20110;-73
2022/09/25 12:38:44;;;;;;;0.47;0.47;;;16.40;99.90;;;;;;5054486;28;20481;-72
2022/09/25 12:41:40;;;;;;;1.30;1.08;;;16.30;99.90;;;;;;5054415;28;20392;-73
2022/09/25 12:44:20;;;;;;;0.10;0.10;;;16.10;99.90;;;;;;5053138;28;20029;-73
2022/09/25 12:46:56;;;;;;;0.08;0.08;;;15.90;99.90;;;;;;5051973;28;20025;-73
2022/09/25 12:49:22;;;;;;;0.10;0.10;;;16.00;99.90;;;;;;5043869;28;20024;-73
2022/09/25 12:51:53;;;;;;;0.82;0.82;;;16.00;99.90;;;;;;5053013;28;20025;-73
2022/09/25 12:54:53;;;;;;;1.23;0.70;;;16.00;99.90;;;;;;5050583;22;20013;-75
2022/09/25 12:57:18;;;;;;;1.10;1.10;;;15.90;99.90;;;;;;5033903;28;20037;-75
2022/09/25 13:00:04;;;;;;;0.10;0.10;;;15.90;99.90;;;;;;5034783;28;20037;-75
2022/09/25 13:02:39;;;;;;;0.10;0.10;;;15.80;99.90;;;;;;5034692;28;20032;-75
2022/09/25 13:05:33;;;;;;;0.52;0.52;;;15.70;99.90;;;;;;5029961;28;20017;-75
2022/09/25 13:08:22;;;;;;;2.53;1.55;;;15.80;99.90;;;;;;5033394;28;20060;-75
2022/09/25 13:11:04;;;;;;;0.00;0.00;;;15.60;99.90;;;;;;5034517;28;20432;-75
2022/09/25 13:13:36;;;;;;;0.00;0.00;;;15.70;99.90;;;;;;5033962;28;20038;-75
2022/09/25 13:16:02;;;;;;;0.10;0.10;;;15.80;99.90;;;;;;5032855;28;20108;-75
2022/09/25 13:18:30;;;;;;;0.13;0.13;;;15.90;99.90;;;;;;5033788;28;20108;-75
2022/09/25 13:20:57;;;;;;;0.10;0.10;;;16.00;99.90;;;;;;5032136;28;20504;-75
2022/09/25 13:23:40;;;;;;;0.20;0.20;;;15.80;99.90;;;;;;5020427;28;20033;-73
2022/09/25 13:26:09;;;;;;;0.43;0.43;;;15.70;99.90;;;;;;5014091;28;20029;-73
2022/09/25 13:29:16;;;;;;;0.10;0.10;;;15.80;99.90;;;;;;5014631;28;20029;-73
2022/09/25 13:31:44;;;;;;;0.10;0.10;;;15.70;99.90;;;;;;4996799;28;20044;-73
2022/09/25 13:34:13;;;;;;;0.10;0.10;;;15.70;99.90;;;;;;5013835;28;20018;-73
2022/09/25 13:36:46;;;;;;;0.50;0.50;;;15.80;99.90;;;;;;5014164;28;20036;-73
2022/09/25 13:42:21;;;;;;;0.20;0.20;;;15.70;99.90;;;;;;5014160;28;20026;-73